Time;durP1;ratioP1;P1;durP2;ratioP2;P2;SDS_P1;SDS_P2;PMS_P1;PMS_P2;Temp;Humidity;BMP_temperature;BMP_pressure;BME280_temperature;BME280_humidity;BME280_pressure;Samples;Min_cycle;Max_cycle;Signal;HPM_P1;HPM_P2
2023/12/24 00:00:58;;;;;;;7.90;2.70;;;;;;;0.81;100.00;99224.02;5151044;56;1134716;-72
2023/12/24 00:06:07;;;;;;;7.50;2.47;;;;;;;0.79;100.00;99236.28;5139793;56;1134578;-74
2023/12/24 00:11:13;;;;;;;8.90;2.37;;;;;;;0.79;100.00;99237.58;5138146;56;1134695;-73
2023/12/24 00:16:19;;;;;;;10.20;2.77;;;;;;;0.80;100.00;99241.02;5155490;56;1134709;-74
2023/12/24 00:21:25;;;;;;;8.50;1.67;;;;;;;0.78;100.00;99235.06;5140048;56;1136835;-73
2023/12/24 00:26:31;;;;;;;6.17;2.03;;;;;;;0.79;100.00;99251.05;5137548;56;1134858;-74
2023/12/24 00:31:36;;;;;;;8.27;1.93;;;;;;;0.80;100.00;99247.53;5140164;56;1135141;-74
2023/12/24 00:36:42;;;;;;;9.50;2.30;;;;;;;0.80;100.00;99254.87;5154068;56;1134848;-74
2023/12/24 00:41:48;;;;;;;11.47;2.30;;;;;;;0.81;100.00;99260.45;5138909;56;1134393;-73
2023/12/24 00:46:53;;;;;;;10.70;2.47;;;;;;;0.81;100.00;99254.41;5138262;56;1136683;-72
2023/12/24 00:51:59;;;;;;;11.53;2.60;;;;;;;0.82;100.00;99265.20;5110244;56;1136884;-73
2023/12/24 00:57:05;;;;;;;11.03;2.70;;;;;;;0.84;100.00;99264.65;5049118;56;1164642;-75
2023/12/24 01:02:10;;;;;;;5.60;2.07;;;;;;;0.89;100.00;99275.64;5099144;56;1136824;-73
2023/12/24 01:07:18;;;;;;;10.45;2.52;;;;;;;0.95;100.00;99259.66;5152336;56;1134721;-74
2023/12/24 01:12:23;;;;;;;7.80;2.57;;;;;;;0.97;100.00;99262.55;5135821;56;1136787;-74
2023/12/24 01:17:29;;;;;;;13.03;2.67;;;;;;;0.98;100.00;99262.92;5134530;56;1134833;-75
2023/12/24 01:22:35;;;;;;;9.47;2.30;;;;;;;0.99;100.00;99270.27;5127155;56;1136687;-73
2023/12/24 01:27:41;;;;;;;14.73;3.63;;;;;;;1.00;100.00;99269.34;5157302;56;1135046;-73
2023/12/24 01:32:46;;;;;;;10.55;2.77;;;;;;;1.01;100.00;99278.38;5133032;56;1137197;-75
2023/12/24 01:37:54;;;;;;;12.70;4.03;;;;;;;1.02;100.00;99275.30;5136526;56;1136726;-73
2023/12/24 01:42:59;;;;;;;6.13;2.10;;;;;;;1.02;100.00;99270.09;5155115;56;1136979;-75
2023/12/24 01:48:05;;;;;;;9.70;2.50;;;;;;;1.03;100.00;99285.63;5090652;56;1135024;-73
2023/12/24 01:53:12;;;;;;;14.97;2.63;;;;;;;1.05;100.00;99280.34;5051442;56;1134977;-75
2023/12/24 01:58:18;;;;;;;5.53;1.70;;;;;;;1.07;100.00;99276.34;5074146;56;1136632;-72
2023/12/24 02:03:25;;;;;;;10.20;2.67;;;;;;;1.06;100.00;99285.92;5140135;56;1134601;-73
2023/12/24 02:08:32;;;;;;;15.40;2.33;;;;;;;1.05;100.00;99275.97;5145141;56;1136652;-75
2023/12/24 02:13:37;;;;;;;6.17;2.50;;;;;;;1.05;100.00;99281.17;5119471;56;1136866;-75
2023/12/24 02:18:43;;;;;;;3.00;1.73;;;;;;;1.06;100.00;99275.51;5152708;56;1135082;-75
2023/12/24 02:23:48;;;;;;;8.38;1.90;;;;;;;1.07;100.00;99278.95;5138666;56;1134854;-72
2023/12/24 02:28:59;;;;;;;9.60;2.23;;;;;;;1.09;100.00;99283.11;5136808;56;1134500;-73
2023/12/24 02:34:06;;;;;;;11.63;2.70;;;;;;;1.11;100.00;99277.35;5156025;56;1135158;-75
2023/12/24 02:39:12;;;;;;;7.53;1.92;;;;;;;1.14;100.00;99278.95;5139789;56;1136542;-73
2023/12/24 02:44:18;;;;;;;5.17;2.07;;;;;;;1.12;100.00;99278.19;5090600;56;1134680;-74
2023/12/24 02:49:23;;;;;;;8.97;1.87;;;;;;;1.14;100.00;99288.90;5068071;57;1135022;-75
2023/12/24 02:54:29;;;;;;;7.27;1.70;;;;;;;1.16;100.00;99289.65;5052626;56;1134779;-75
2023/12/24 02:59:34;;;;;;;5.57;2.03;;;;;;;1.18;100.00;99295.61;5053845;56;1134832;-74
2023/12/24 03:04:40;;;;;;;10.37;3.43;;;;;;;1.21;100.00;99306.31;5134483;56;1135058;-74
2023/12/24 03:09:46;;;;;;;8.10;2.00;;;;;;;1.23;100.00;99305.27;5156747;56;1136739;-74
2023/12/24 03:14:52;;;;;;;3.97;1.90;;;;;;;1.26;100.00;99302.95;5138021;56;1134624;-73
2023/12/24 03:19:58;;;;;;;4.53;2.03;;;;;;;1.30;100.00;99304.00;5134231;56;1134785;-72
2023/12/24 03:25:04;;;;;;;8.17;2.20;;;;;;;1.31;100.00;99305.67;5154614;56;1134618;-71
2023/12/24 03:30:10;;;;;;;11.37;2.20;;;;;;;1.33;100.00;99302.52;5140147;56;1134994;-75
2023/12/24 03:35:15;;;;;;;13.87;2.70;;;;;;;1.35;100.00;99301.97;5135562;56;1136721;-72
2023/12/24 03:40:21;;;;;;;12.53;1.97;;;;;;;1.35;100.00;99295.45;5116357;56;1136654;-75
2023/12/24 03:45:27;;;;;;;14.27;3.03;;;;;;;1.37;100.00;99294.06;5051537;57;1136608;-72
2023/12/24 03:50:32;;;;;;;7.07;2.43;;;;;;;1.39;100.00;99300.83;5050664;56;1136695;-74
2023/12/24 03:55:38;;;;;;;6.73;1.77;;;;;;;1.44;100.00;99308.84;5049167;56;1134725;-75
2023/12/24 04:00:43;;;;;;;9.43;1.97;;;;;;;1.46;100.00;99293.97;5093732;56;1134396;-72
2023/12/24 04:05:49;;;;;;;9.23;2.57;;;;;;;1.48;100.00;99297.33;5140272;56;1134915;-74
2023/12/24 04:10:54;;;;;;;5.27;2.20;;;;;;;1.50;100.00;99299.37;5141181;56;1134695;-74
2023/12/24 04:16:00;;;;;;;6.80;2.30;;;;;;;1.52;100.00;99304.88;5160095;56;1134737;-73
2023/12/24 04:21:06;;;;;;;8.87;2.17;;;;;;;1.53;100.00;99313.53;5132641;56;1134569;-72
2023/12/24 04:26:11;;;;;;;7.90;2.00;;;;;;;1.52;100.00;99303.57;5137266;56;1134611;-72
2023/12/24 04:31:17;;;;;;;7.40;1.97;;;;;;;1.55;100.00;99297.31;5177920;56;1134578;-73
2023/12/24 04:36:23;;;;;;;8.17;2.27;;;;;;;1.57;100.00;99289.78;5116169;56;1134582;-72
2023/12/24 04:41:28;;;;;;;7.17;2.33;;;;;;;1.61;100.00;99295.66;5069087;56;1135000;-75
2023/12/24 04:46:42;;;;;;;3.83;2.53;;;;;;;1.60;100.00;99297.88;5069862;56;1134870;-74
2023/12/24 04:51:47;;;;;;;3.10;1.60;;;;;;;1.60;100.00;99301.80;5052764;56;1174106;-72
2023/12/24 04:56:53;;;;;;;9.13;1.50;;;;;;;1.60;100.00;99311.75;5052545;56;1134660;-75
2023/12/24 05:01:59;;;;;;;7.05;1.80;;;;;;;1.62;100.00;99300.78;5118692;56;1134687;-75
2023/12/24 05:07:04;;;;;;;2.85;1.37;;;;;;;1.64;100.00;99303.30;5137081;56;1135042;-75
2023/12/24 05:12:10;;;;;;;10.68;1.75;;;;;;;1.63;100.00;99306.83;5138264;56;1134701;-73
2023/12/24 05:17:16;;;;;;;9.20;2.45;;;;;;;1.61;100.00;99313.89;5154193;56;1137074;-75
2023/12/24 05:22:23;;;;;;;3.33;1.60;;;;;;;1.59;100.00;99324.41;5138861;56;1134960;-75
2023/12/24 05:27:29;;;;;;;5.67;1.40;;;;;;;1.58;100.00;99333.61;5133929;56;1134869;-75
2023/12/24 05:32:35;;;;;;;4.00;1.67;;;;;;;1.56;100.00;99324.58;5132213;56;1134887;-74
2023/12/24 05:37:40;;;;;;;6.23;1.50;;;;;;;1.53;100.00;99333.88;5157062;56;1134952;-75
2023/12/24 05:42:46;;;;;;;8.77;2.23;;;;;;;1.53;100.00;99329.97;5136525;56;1134758;-74
2023/12/24 05:47:51;;;;;;;6.67;2.72;;;;;;;1.54;100.00;99330.81;5134950;56;1134614;-74
2023/12/24 05:52:57;;;;;;;3.10;1.73;;;;;;;1.53;100.00;99324.77;5155504;56;1134598;-73
2023/12/24 05:58:03;;;;;;;6.10;2.33;;;;;;;1.53;100.00;99323.45;5053295;56;1134746;-75
2023/12/24 06:03:08;;;;;;;6.10;1.40;;;;;;;1.54;100.00;99326.91;5119458;56;1134722;-72
2023/12/24 06:08:17;;;;;;;3.33;1.40;;;;;;;1.52;100.00;99326.19;5159748;56;1134620;-75
2023/12/24 06:13:23;;;;;;;12.33;5.27;;;;;;;1.50;100.00;99322.36;5133198;56;1134792;-74
2023/12/24 06:18:28;;;;;;;6.23;2.17;;;;;;;1.53;100.00;99324.77;5135971;56;1136844;-72
2023/12/24 06:23:35;;;;;;;3.75;2.22;;;;;;;1.52;100.00;99335.30;5148784;56;1135038;-75
2023/12/24 06:28:40;;;;;;;5.47;1.27;;;;;;;1.53;100.00;99336.98;5124298;56;1134643;-72
2023/12/24 06:33:46;;;;;;;4.47;1.57;;;;;;;1.54;100.00;99347.75;5050646;57;1134739;-75
2023/12/24 06:38:51;;;;;;;2.10;1.67;;;;;;;1.52;100.00;99365.27;5048494;56;1134653;-74
2023/12/24 06:43:57;;;;;;;3.73;1.13;;;;;;;1.47;100.00;99352.50;5069918;57;1134676;-73
2023/12/24 06:49:03;;;;;;;2.17;1.20;;;;;;;1.43;100.00;99343.64;5048057;57;1134463;-72
2023/12/24 06:54:08;;;;;;;10.37;1.40;;;;;;;1.41;100.00;99345.87;5066648;56;1134754;-74
2023/12/24 06:59:14;;;;;;;4.00;1.30;;;;;;;1.39;100.00;99349.48;5093965;56;1136993;-73
2023/12/24 07:04:21;;;;;;;1.97;1.83;;;;;;;1.34;100.00;99352.84;5133113;56;1134715;-73
2023/12/24 07:09:27;;;;;;;1.65;1.55;;;;;;;1.27;100.00;99358.86;5126260;56;1134649;-73
2023/12/24 07:14:35;;;;;;;1.87;1.55;;;;;;;1.22;100.00;99363.98;5149454;56;1134945;-75
2023/12/24 07:19:41;;;;;;;4.17;3.20;;;;;;;1.18;100.00;99357.27;5095857;56;1134718;-74
2023/12/24 07:24:46;;;;;;;2.30;1.90;;;;;;;1.20;100.00;99363.23;5094919;56;1238396;-74
2023/12/24 07:29:52;;;;;;;3.50;2.90;;;;;;;1.20;100.00;99358.02;5063411;56;1251010;-72
2023/12/24 07:34:59;;;;;;;5.20;4.70;;;;;;;1.15;100.00;99356.14;5092540;56;1134651;-72
2023/12/24 07:40:16;;;;;;;6.60;4.23;;;;;;;1.12;100.00;99358.91;5112620;56;1134723;-74
2023/12/24 07:45:23;;;;;;;4.93;4.20;;;;;;;1.09;100.00;99362.52;5143005;56;1135109;-74
2023/12/24 07:50:28;;;;;;;7.40;3.80;;;;;;;1.04;100.00;99365.41;5044005;56;1134644;-71
2023/12/24 07:55:34;;;;;;;6.70;4.97;;;;;;;1.02;100.00;99362.52;5043357;57;1135626;-75
2023/12/24 08:00:42;;;;;;;4.77;4.10;;;;;;;0.99;100.00;99356.17;5034646;56;1134882;-74
2023/12/24 08:05:47;;;;;;;14.03;10.50;;;;;;;0.97;100.00;99357.56;5105440;56;1134770;-71
2023/12/24 08:10:52;;;;;;;26.52;18.20;;;;;;;0.96;100.00;99343.33;5133482;56;1138948;-72
2023/12/24 08:15:58;;;;;;;35.37;23.17;;;;;;;0.95;100.00;99349.45;5051000;56;1139433;-72
2023/12/24 08:21:04;;;;;;;17.20;13.07;;;;;;;0.95;100.00;99335.14;5068226;56;1139030;-72
2023/12/24 08:26:10;;;;;;;44.83;19.67;;;;;;;0.92;100.00;99336.61;5105545;56;1138894;-73
2023/12/24 08:31:16;;;;;;;90.53;28.67;;;;;;;0.88;100.00;99331.23;5071283;56;1138676;-75
2023/12/24 08:36:21;;;;;;;35.43;12.00;;;;;;;0.86;100.00;99327.41;5071765;56;1138833;-76
2023/12/24 08:41:27;;;;;;;40.05;13.83;;;;;;;0.84;100.00;99328.41;5082513;56;1139040;-74
2023/12/24 08:46:32;;;;;;;97.37;33.97;;;;;;;0.79;100.00;99335.17;5053388;57;1138720;-74
2023/12/24 08:51:38;;;;;;;195.97;38.90;;;;;;;0.77;100.00;99332.27;5046152;57;1138806;-74
2023/12/24 08:56:44;;;;;;;71.10;17.97;;;;;;;0.78;100.00;99328.75;5068825;57;1141353;-73
2023/12/24 09:01:50;;;;;;;189.27;46.30;;;;;;;0.79;100.00;99323.92;5128287;56;1138922;-73
2023/12/24 09:06:55;;;;;;;195.40;53.13;;;;;;;0.79;100.00;99314.35;5158694;56;1141031;-74
2023/12/24 09:12:02;;;;;;;172.95;38.70;;;;;;;0.81;100.00;99310.36;5144296;56;1141208;-74
2023/12/24 09:17:07;;;;;;;279.63;69.77;;;;;;;0.85;100.00;99300.16;5060370;56;1141065;-73
2023/12/24 09:22:13;;;;;;;124.77;29.80;;;;;;;0.87;100.00;99297.86;5050110;56;1141091;-74
2023/12/24 09:27:18;;;;;;;102.50;30.10;;;;;;;0.88;100.00;99300.00;5063674;57;1140930;-73
2023/12/24 09:32:24;;;;;;;79.93;19.77;;;;;;;0.89;100.00;99292.10;5043584;57;1140823;-74
2023/12/24 09:37:29;;;;;;;131.27;34.80;;;;;;;0.89;100.00;99281.69;5071169;56;1139055;-75
2023/12/24 09:42:37;;;;;;;62.07;17.73;;;;;;;0.91;100.00;99275.94;5139239;56;1140937;-75
2023/12/24 09:47:43;;;;;;;59.30;15.67;;;;;;;0.92;100.00;99263.73;5147826;56;1138649;-76
2023/12/24 09:52:50;;;;;;;30.53;9.93;;;;;;;0.93;100.00;99258.90;5123210;56;1138652;-74
2023/12/24 09:57:56;;;;;;;19.95;8.90;;;;;;;0.95;100.00;99250.08;5094767;56;1136609;-75
2023/12/24 10:03:01;;;;;;;22.22;9.58;;;;;;;0.97;100.00;99223.96;5073375;56;1136460;-74
2023/12/24 10:08:10;;;;;;;12.97;8.10;;;;;;;1.01;100.00;99228.06;5088025;56;1137082;-74
2023/12/24 10:13:22;;;;;;;8.88;3.22;;;;;;;1.09;100.00;99220.62;5107994;56;1136824;-73
2023/12/24 10:18:28;;;;;;;14.10;8.47;;;;;;;1.12;100.00;99207.43;5128047;56;1134784;-75
2023/12/24 10:23:34;;;;;;;4.57;3.57;;;;;;;1.12;100.00;99198.78;5096824;56;1136486;-76
2023/12/24 10:28:52;;;;;;;11.67;6.70;;;;;;;1.14;100.00;99195.16;5101007;56;1134767;-75
2023/12/24 10:34:01;;;;;;;7.80;4.13;;;;;;;1.10;100.00;99189.75;5045812;56;1136747;-74
2023/12/24 10:39:12;;;;;;;14.33;7.58;;;;;;;1.13;100.00;99177.86;5092546;56;1134816;-76
2023/12/24 10:44:19;;;;;;;7.33;5.07;;;;;;;1.15;100.00;99162.15;5134085;55;1136753;-76
2023/12/24 10:49:25;;;;;;;5.17;4.42;;;;;;;1.16;100.00;99151.64;5129742;56;1134774;-73
2023/12/24 10:54:31;;;;;;;13.63;8.57;;;;;;;1.15;100.00;99134.34;5149248;56;1134564;-74
2023/12/24 11:00:14;;;;;;;23.57;12.77;;;;;;;1.15;100.00;99116.12;5128931;56;1136667;-75
2023/12/24 11:05:46;;;;;;;9.58;6.35;;;;;;;1.16;100.00;99127.38;5127527;56;1139061;-74
2023/12/24 11:11:07;;;;;;;20.10;10.60;;;;;;;1.16;100.00;99108.68;5129133;56;1134812;-74
2023/12/24 11:16:10;;;;;;;16.33;10.83;;;;;;;1.19;100.00;99098.55;5089724;56;1138772;-75
2023/12/24 11:21:18;;;;;;;14.30;10.43;;;;;;;1.24;100.00;99084.75;5064394;56;1138730;-76
2023/12/24 11:26:34;;;;;;;12.18;6.95;;;;;;;1.30;100.00;99072.66;5062694;56;1138894;-76
2023/12/24 11:31:39;;;;;;;14.87;8.47;;;;;;;1.33;100.00;99049.03;5095982;56;1136511;-74
2023/12/24 11:36:49;;;;;;;8.40;5.42;;;;;;;1.36;100.00;99042.34;5092884;56;1136739;-75
2023/12/24 11:41:55;;;;;;;10.07;5.60;;;;;;;1.36;100.00;99031.45;5060087;56;1134923;-76
2023/12/24 11:47:00;;;;;;;38.67;18.77;;;;;;;1.43;100.00;99025.83;5063093;57;1136500;-73
2023/12/24 11:52:06;;;;;;;30.50;13.68;;;;;;;1.46;100.00;99006.94;5098611;57;1138514;-73
2023/12/24 11:57:14;;;;;;;13.90;7.70;;;;;;;1.52;100.00;99000.52;5063539;57;1138738;-77
2023/12/24 12:02:19;;;;;;;24.43;12.33;;;;;;;1.51;100.00;98992.33;5043723;57;1136773;-74
2023/12/24 12:07:25;;;;;;;36.83;18.33;;;;;;;1.50;100.00;98979.77;5093776;57;1138824;-77
2023/12/24 12:12:30;;;;;;;14.70;6.58;;;;;;;1.47;100.00;98968.23;5089594;57;1139217;-75
2023/12/24 12:17:36;;;;;;;22.23;9.23;;;;;;;1.50;100.00;98967.20;5061156;57;1136939;-76
2023/12/24 12:22:42;;;;;;;33.55;14.95;;;;;;;1.52;100.00;98965.34;5058309;56;1136646;-74
2023/12/24 12:27:47;;;;;;;18.47;9.23;;;;;;;1.52;100.00;98946.64;5072134;56;1139046;-76
2023/12/24 12:32:53;;;;;;;8.67;4.43;;;;;;;1.56;100.00;98943.34;5056650;56;1136908;-75
2023/12/24 12:37:59;;;;;;;26.63;12.80;;;;;;;1.59;100.00;98924.91;5064405;56;1134748;-72
2023/12/24 12:43:05;;;;;;;14.20;7.27;;;;;;;1.65;100.00;98909.71;5159193;56;1138910;-74
2023/12/24 12:48:10;;;;;;;18.67;7.80;;;;;;;1.74;100.00;98911.69;5133308;56;1136587;-75
2023/12/24 12:53:25;;;;;;;10.83;4.80;;;;;;;1.80;100.00;98909.15;5137460;56;1136491;-76
2023/12/24 12:58:31;;;;;;;14.43;8.07;;;;;;;1.87;100.00;98916.91;5162339;56;1136868;-76
2023/12/24 13:03:37;;;;;;;14.07;7.60;;;;;;;1.93;100.00;98902.16;5141991;56;1136638;-74
2023/12/24 13:08:43;;;;;;;12.40;6.30;;;;;;;1.97;100.00;98891.06;5101260;56;1136641;-75
2023/12/24 13:13:48;;;;;;;8.97;5.37;;;;;;;2.02;100.00;98879.83;5138927;56;1136860;-74
2023/12/24 13:18:54;;;;;;;12.30;8.70;;;;;;;2.06;100.00;98874.78;5099739;56;1134718;-73
2023/12/24 13:23:59;;;;;;;15.27;9.47;;;;;;;2.10;100.00;98877.08;5061175;56;1137146;-75
2023/12/24 13:29:06;;;;;;;15.33;8.53;;;;;;;2.14;100.00;98875.06;5034833;56;1136889;-76
2023/12/24 13:34:13;;;;;;;27.00;18.17;;;;;;;2.21;100.00;98860.67;5076802;56;1137062;-76
2023/12/24 13:39:19;;;;;;;13.40;9.10;;;;;;;2.27;100.00;98860.25;5092829;56;1139215;-75
2023/12/24 13:44:24;;;;;;;37.53;18.43;;;;;;;2.33;100.00;98856.36;5161082;56;1136748;-78
2023/12/24 13:49:30;;;;;;;77.90;28.57;;;;;;;2.41;100.00;98850.16;5136901;56;1138946;-76
2023/12/24 13:54:36;;;;;;;78.45;33.40;;;;;;;2.47;100.00;98840.09;5112842;56;1139012;-76
2023/12/24 13:59:44;;;;;;;39.18;16.14;;;;;;;2.56;100.00;98834.70;5140989;56;1138844;-76
2023/12/24 14:04:49;;;;;;;134.27;44.23;;;;;;;2.70;100.00;98834.55;5161746;56;1139032;-74
2023/12/24 14:09:55;;;;;;;83.60;25.25;;;;;;;2.80;100.00;98821.17;5141993;56;1140607;-73
2023/12/24 14:15:00;;;;;;;34.85;11.73;;;;;;;2.93;100.00;98805.91;5126275;56;1138932;-73
2023/12/24 14:20:09;;;;;;;24.57;11.47;;;;;;;3.05;100.00;98796.72;5075039;56;1138690;-74
2023/12/24 14:25:15;;;;;;;46.13;12.73;;;;;;;3.38;100.00;98785.50;5055675;57;1138949;-72
2023/12/24 14:30:21;;;;;;;31.80;13.07;;;;;;;3.38;100.00;98785.50;5075049;57;1138731;-76
2023/12/24 14:35:28;;;;;;;37.43;16.43;;;;;;;3.62;100.00;98790.66;5076306;57;1138791;-77
2023/12/24 14:40:33;;;;;;;19.17;10.70;;;;;;;3.82;100.00;98772.94;5085923;56;1139454;-73
2023/12/24 14:45:39;;;;;;;18.10;10.73;;;;;;;4.06;100.00;98763.66;5058713;56;1138844;-78
2023/12/24 14:50:45;;;;;;;21.48;12.88;;;;;;;4.29;100.00;98763.61;5059179;56;1138825;-76
2023/12/24 14:55:51;;;;;;;53.97;20.67;;;;;;;4.50;100.00;98752.73;5119095;56;1138463;-77
2023/12/24 15:00:57;;;;;;;31.60;13.27;;;;;;;4.67;100.00;98753.98;5061421;56;1138501;-75
2023/12/24 15:06:03;;;;;;;43.83;16.70;;;;;;;4.83;100.00;98748.69;5009859;57;1139053;-78
2023/12/24 15:11:08;;;;;;;23.50;12.40;;;;;;;5.00;100.00;98738.61;5068845;56;1138779;-75
2023/12/24 15:16:14;;;;;;;22.80;10.33;;;;;;;5.12;100.00;98741.51;5075818;56;1138893;-75
2023/12/24 15:21:20;;;;;;;27.63;14.93;;;;;;;5.29;100.00;98727.83;5064144;55;1139060;-76
2023/12/24 15:26:25;;;;;;;35.57;11.90;;;;;;;5.42;100.00;98713.19;5091271;56;1138813;-77
2023/12/24 15:31:31;;;;;;;27.17;10.85;;;;;;;5.57;100.00;98698.77;5156078;56;1138526;-76
2023/12/24 15:36:43;;;;;;;32.98;13.62;;;;;;;5.71;100.00;98691.02;5126503;56;1138543;-77
2023/12/24 15:41:49;;;;;;;25.77;11.00;;;;;;;5.84;100.00;98681.95;5123938;56;1139227;-79
2023/12/24 15:46:54;;;;;;;33.07;12.17;;;;;;;5.98;100.00;98683.39;5145690;56;1138599;-78
2023/12/24 15:52:00;;;;;;;21.30;13.13;;;;;;;6.06;100.00;98680.94;5119637;56;1138788;-78
2023/12/24 15:57:07;;;;;;;16.93;9.93;;;;;;;6.23;100.00;98697.34;5119469;56;1138807;-78
2023/12/24 16:02:13;;;;;;;54.53;17.67;;;;;;;6.23;100.00;98697.34;5154190;56;1136434;-76
2023/12/24 16:07:21;;;;;;;32.00;11.77;;;;;;;6.31;100.00;98697.47;5196942;56;1140804;-76
2023/12/24 16:12:26;;;;;;;23.80;9.23;;;;;;;6.42;100.00;98689.11;5066569;56;1140670;-77
2023/12/24 16:17:32;;;;;;;13.08;8.23;;;;;;;6.50;100.00;98669.57;5110159;56;1138705;-77
2023/12/24 16:22:37;;;;;;;14.80;8.53;;;;;;;6.57;100.00;98676.73;5181348;56;1138642;-74
2023/12/24 16:27:43;;;;;;;13.58;8.13;;;;;;;6.64;100.00;98666.52;5129459;56;1138937;-75
2023/12/24 16:32:48;;;;;;;9.78;5.60;;;;;;;6.73;100.00;98650.39;5038810;57;1138958;-73
2023/12/24 16:37:54;;;;;;;13.60;7.93;;;;;;;6.80;100.00;98640.51;5053746;56;1136868;-77
2023/12/24 16:43:00;;;;;;;12.30;6.57;;;;;;;6.88;100.00;98642.41;5103135;56;1138677;-73
2023/12/24 16:48:05;;;;;;;18.53;13.13;;;;;;;6.95;100.00;98628.58;5123295;56;1138718;-78
2023/12/24 16:53:11;;;;;;;5.50;4.97;;;;;;;7.01;100.00;98622.77;5065526;56;1140719;-75
2023/12/24 16:58:16;;;;;;;12.50;5.40;;;;;;;7.10;100.00;98620.24;5140128;56;1136459;-78
2023/12/24 17:03:22;;;;;;;13.80;8.20;;;;;;;7.17;100.00;98632.69;5131025;56;1138882;-79
2023/12/24 17:08:28;;;;;;;7.63;5.13;;;;;;;7.24;100.00;98619.77;5092213;56;1194387;-73
2023/12/24 17:13:34;;;;;;;14.70;8.70;;;;;;;7.29;100.00;98617.06;5129835;56;1136926;-77
2023/12/24 17:18:39;;;;;;;13.58;5.35;;;;;;;7.35;100.00;98623.52;5130623;56;1139105;-74
2023/12/24 17:23:45;;;;;;;9.43;5.40;;;;;;;7.44;100.00;98587.16;5161944;56;1138708;-76
2023/12/24 17:28:52;;;;;;;10.32;4.72;;;;;;;7.51;100.00;98586.91;5100770;56;1136647;-76
2023/12/24 17:33:57;;;;;;;6.93;6.07;;;;;;;7.54;100.00;98575.27;5124053;56;1138870;-77
2023/12/24 17:39:04;;;;;;;10.13;6.20;;;;;;;7.58;100.00;98568.75;5097763;56;1136710;-77
2023/12/24 17:44:15;;;;;;;12.23;7.07;;;;;;;7.63;100.00;98554.67;5127009;56;1138766;-77
2023/12/24 17:49:17;;;;;;;16.33;8.17;;;;;;;7.71;100.00;98557.38;5130456;56;1138685;-75
2023/12/24 17:54:22;;;;;;;17.93;6.87;;;;;;;7.71;100.00;98557.38;5152540;56;1138752;-78
2023/12/24 17:59:28;;;;;;;8.43;5.20;;;;;;;7.73;100.00;98552.30;5152874;56;1138577;-77
2023/12/24 18:04:33;;;;;;;15.80;7.13;;;;;;;7.78;100.00;98541.34;5057561;56;1136946;-76
2023/12/24 18:09:39;;;;;;;12.23;6.27;;;;;;;7.82;100.00;98532.14;5057384;56;1138943;-77
2023/12/24 18:14:44;;;;;;;6.47;5.25;;;;;;;7.87;100.00;98542.23;5077070;57;1138853;-76
2023/12/24 18:19:50;;;;;;;11.60;6.63;;;;;;;7.88;100.00;98534.68;5057241;57;1136904;-75
2023/12/24 18:24:55;;;;;;;5.47;4.10;;;;;;;7.94;100.00;98532.77;5056068;56;1138838;-77
2023/12/24 18:30:01;;;;;;;5.47;3.37;;;;;;;7.98;100.00;98552.53;5076517;57;1137022;-76
2023/12/24 18:35:07;;;;;;;4.10;3.22;;;;;;;8.00;100.00;98541.36;5056963;56;1136702;-75
2023/12/24 18:40:13;;;;;;;8.33;3.52;;;;;;;8.04;100.00;98533.51;5100608;56;1136703;-74
2023/12/24 18:45:19;;;;;;;10.37;5.67;;;;;;;8.11;100.00;98520.89;5149769;56;1136779;-75
2023/12/24 18:50:24;;;;;;;9.73;4.43;;;;;;;8.14;100.00;98511.86;5123279;56;1138760;-77
2023/12/24 18:55:30;;;;;;;7.90;3.43;;;;;;;8.21;100.00;98501.56;5145879;56;1136751;-78
2023/12/24 19:00:35;;;;;;;5.78;2.70;;;;;;;8.23;100.00;98492.53;5064739;57;1136574;-74
2023/12/24 19:05:41;;;;;;;7.27;3.60;;;;;;;8.26;100.00;98498.78;5079212;56;1136556;-74
2023/12/24 19:10:46;;;;;;;8.23;3.40;;;;;;;8.29;100.00;98488.44;5216522;55;1137333;-79
2023/12/24 19:15:52;;;;;;;6.77;3.50;;;;;;;8.33;100.00;98471.39;5185989;55;1136768;-77
2023/12/24 19:20:58;;;;;;;5.13;3.10;;;;;;;8.34;100.00;98462.02;5137285;56;1136602;-76
2023/12/24 19:26:03;;;;;;;4.50;2.83;;;;;;;8.37;100.00;98466.98;5128151;56;1136637;-74
2023/12/24 19:31:14;;;;;;;3.97;2.60;;;;;;;8.44;100.00;98454.83;5072409;56;1136611;-75
2023/12/24 19:36:20;;;;;;;3.90;2.10;;;;;;;8.46;100.00;98434.91;5120809;56;1136377;-75
2023/12/24 19:41:27;;;;;;;2.83;2.27;;;;;;;8.52;100.00;98418.98;5050752;56;1136749;-75
2023/12/24 19:46:32;;;;;;;9.40;3.23;;;;;;;8.54;100.00;98407.31;5122720;56;1136915;-72
2023/12/24 19:51:39;;;;;;;2.50;2.10;;;;;;;8.59;100.00;98407.64;5067979;56;1136744;-75
2023/12/24 19:56:47;;;;;;;3.35;2.40;;;;;;;8.58;100.00;98384.08;5166697;56;1136666;-74
2023/12/24 20:18:03;;;;;;;1.53;1.43;;;;;;;8.64;100.00;98387.41;5069932;56;47354;-77
2023/12/24 20:23:09;;;;;;;1.33;1.23;;;;;;;8.63;100.00;98369.95;4854922;58;1132406;-77
2023/12/24 20:28:15;;;;;;;0.80;0.80;;;;;;;8.64;100.00;98362.37;4882068;57;1136726;-77
2023/12/24 20:33:22;;;;;;;16.63;6.50;;;;;;;8.67;100.00;98351.53;4936382;57;1136669;-76
2023/12/24 20:38:29;;;;;;;3.33;1.73;;;;;;;8.69;100.00;98354.83;4976956;56;1138898;-76
2023/12/24 20:43:35;;;;;;;5.23;1.77;;;;;;;8.72;100.00;98368.98;5053403;56;1136848;-74
2023/12/24 20:48:40;;;;;;;1.97;1.10;;;;;;;8.76;100.00;98361.09;5107113;56;1136759;-77
2023/12/24 20:53:46;;;;;;;14.03;4.60;;;;;;;8.78;100.00;98367.86;5048596;56;1136766;-75
2023/12/24 20:58:51;;;;;;;1.20;1.00;;;;;;;8.80;100.00;98351.41;4946128;57;1138669;-75
2023/12/24 21:03:57;;;;;;;5.03;2.20;;;;;;;8.82;100.00;98351.25;5051894;56;1136875;-78
2023/12/24 21:09:02;;;;;;;2.93;1.33;;;;;;;8.83;100.00;98346.80;5016616;56;1136761;-79
2023/12/24 21:14:09;;;;;;;1.72;1.30;;;;;;;8.87;100.00;98341.52;5026715;56;1136963;-75
2023/12/24 21:19:14;;;;;;;2.95;1.45;;;;;;;8.89;100.00;98346.13;5012783;57;1136743;-76
2023/12/24 21:24:20;;;;;;;2.83;1.87;;;;;;;8.97;100.00;98338.26;4963626;56;1136740;-77
2023/12/24 21:29:26;;;;;;;0.40;0.40;;;;;;;9.01;100.00;98351.45;4915163;57;1137052;-78
2023/12/24 21:34:33;;;;;;;0.82;0.68;;;;;;;9.05;100.00;98358.03;4925583;57;1136815;-77
2023/12/24 21:39:38;;;;;;;0.50;0.50;;;;;;;9.05;100.00;98357.55;4928905;56;1137076;-75
2023/12/24 21:44:44;;;;;;;2.57;0.70;;;;;;;9.07;100.00;98344.20;4899825;57;1136720;-76
2023/12/24 21:49:49;;;;;;;1.87;1.57;;;;;;;9.09;100.00;98332.50;4922568;56;1136688;-81
2023/12/24 21:54:55;;;;;;;4.93;1.37;;;;;;;9.13;100.00;98327.73;4933513;58;1136794;-79
2023/12/24 22:00:00;;;;;;;0.70;0.70;;;;;;;9.16;100.00;98333.52;4910515;57;1136466;-81
2023/12/24 22:05:08;;;;;;;1.05;0.60;;;;;;;9.18;100.00;98316.19;4910726;57;1136596;-74
2023/12/24 22:10:13;;;;;;;1.00;0.72;;;;;;;9.21;100.00;98305.31;4920042;58;1136819;-78
2023/12/24 22:15:19;;;;;;;1.70;1.17;;;;;;;9.26;100.00;98303.52;4995023;56;1136647;-80
2023/12/24 22:20:25;;;;;;;0.70;0.70;;;;;;;9.27;100.00;98295.93;4912991;57;1137193;-78
2023/12/24 22:25:31;;;;;;;5.43;1.93;;;;;;;9.30;100.00;98306.16;4935978;57;1136827;-78
2023/12/24 22:30:36;;;;;;;1.90;1.13;;;;;;;9.34;100.00;98296.41;4914923;57;1136836;-77
2023/12/24 22:35:42;;;;;;;1.43;0.80;;;;;;;9.38;100.00;98300.38;4945952;57;1136702;-77
2023/12/24 22:40:47;;;;;;;1.77;1.53;;;;;;;9.42;100.00;98291.14;5002275;57;1136830;-77
2023/12/24 22:45:53;;;;;;;1.20;1.10;;;;;;;9.41;100.00;98302.69;4910386;59;1137076;-77
2023/12/24 22:50:58;;;;;;;0.70;0.70;;;;;;;9.42;100.00;98295.59;4994652;57;1137124;-76
2023/12/24 22:56:04;;;;;;;0.80;0.80;;;;;;;9.45;100.00;98291.31;5012741;57;1136863;-76
2023/12/24 23:01:10;;;;;;;0.30;0.30;;;;;;;9.58;100.00;98310.59;4995213;56;1136674;-76
2023/12/24 23:06:15;;;;;;;0.40;0.40;;;;;;;9.63;100.00;98315.67;4991199;57;1136699;-77
2023/12/24 23:11:21;;;;;;;0.47;0.30;;;;;;;9.74;100.00;98312.72;4882132;58;1137184;-77
2023/12/24 23:16:26;;;;;;;0.40;0.40;;;;;;;9.86;100.00;98310.55;4883749;58;1136915;-77
2023/12/24 23:21:33;;;;;;;0.37;0.30;;;;;;;9.83;100.00;98313.52;5009715;57;1136983;-77
2023/12/24 23:26:39;;;;;;;0.65;0.30;;;;;;;9.74;100.00;98329.05;4927308;57;1136738;-77
2023/12/24 23:31:44;;;;;;;1.13;0.23;;;;;;;9.62;100.00;98319.34;5003112;57;1136821;-77